Time;durP1;ratioP1;P1;durP2;ratioP2;P2;SDS_P1;SDS_P2;PMS_P1;PMS_P2;Temp;Humidity;BMP_temperature;BMP_pressure;BME280_temperature;BME280_humidity;BME280_pressure;Samples;Min_cycle;Max_cycle;Signal;HPM_P1;HPM_P2
2023/05/16 00:00:08;;;;;;;;;27.00;26.60;;;;;15.94;58.21;98550.41;5082948;28;8820;-78
2023/05/16 00:02:57;;;;;;;;;26.20;26.00;;;;;16.02;58.25;98537.59;5057279;28;8950;-78
2023/05/16 00:05:26;;;;;;;;;24.60;24.60;;;;;15.87;58.55;98534.97;5055375;28;8934;-78
2023/05/16 00:07:54;;;;;;;;;24.60;24.60;;;;;15.86;58.58;98541.22;5049314;28;8864;-80
2023/05/16 00:10:24;;;;;;;;;25.40;24.60;;;;;15.83;58.76;98543.13;5049754;28;8868;-77
2023/05/16 00:12:55;;;;;;;;;22.20;21.20;;;;;15.84;58.88;98541.31;5032367;28;8961;-78
2023/05/16 00:15:24;;;;;;;;;24.60;24.60;;;;;15.89;58.63;98536.59;5066054;28;8852;-78
2023/05/16 00:17:57;;;;;;;;;26.60;26.00;;;;;15.88;58.68;98526.09;5048962;28;8851;-79
2023/05/16 00:20:27;;;;;;;;;25.00;25.00;;;;;15.89;58.72;98527.78;5066091;28;8889;-78
2023/05/16 00:22:59;;;;;;;;;26.40;26.20;;;;;15.89;58.65;98528.66;5065234;28;8965;-80
2023/05/16 00:25:29;;;;;;;;;28.00;26.60;;;;;15.81;58.91;98522.94;5026180;28;9711;-78
2023/05/16 00:27:59;;;;;;;;;22.60;22.60;;;;;15.70;59.27;98515.66;5006871;28;8908;-78
2023/05/16 00:30:27;;;;;;;;;24.20;24.20;;;;;15.85;58.93;98513.88;4998613;28;8863;-79
2023/05/16 00:32:56;;;;;;;;;27.20;25.80;;;;;15.73;59.12;98511.94;5027462;28;8852;-79
2023/05/16 00:35:25;;;;;;;;;27.20;27.20;;;;;15.90;59.07;98508.31;5011164;28;8852;-77
2023/05/16 00:37:55;;;;;;;;;25.20;24.40;;;;;15.72;59.48;98504.94;5026911;28;8875;-77
2023/05/16 00:40:24;;;;;;;;;24.40;24.40;;;;;15.79;59.37;98493.03;5027444;28;8985;-79
2023/05/16 00:42:54;;;;;;;;;26.40;24.60;;;;;15.92;58.93;98496.66;5044970;28;8960;-79
2023/05/16 00:45:26;;;;;;;;;27.00;24.80;;;;;15.85;59.57;98503.28;5028865;28;8851;-79
2023/05/16 00:47:56;;;;;;;;;24.20;24.20;;;;;15.89;59.13;98504.81;4978444;28;8868;-78
2023/05/16 00:50:25;;;;;;;;;24.60;24.20;;;;;16.04;58.58;98497.75;5043651;28;8856;-79
2023/05/16 00:52:57;;;;;;;;;21.60;21.60;;;;;16.14;58.22;98508.63;5027639;28;8973;-79
2023/05/16 00:55:26;;;;;;;;;22.60;21.60;;;;;16.18;58.30;98507.50;4993501;28;9014;-79
2023/05/16 00:57:56;;;;;;;;;26.20;25.20;;;;;15.85;59.18;98508.59;5028520;28;8859;-78
2023/05/16 01:00:26;;;;;;;;;26.00;24.40;;;;;15.78;59.67;98517.84;4994388;28;8902;-78
2023/05/16 01:02:56;;;;;;;;;22.80;22.80;;;;;15.73;59.55;98520.75;5026976;28;9598;-79
2023/05/16 01:05:25;;;;;;;;;23.20;22.60;;;;;15.80;59.36;98522.09;5026374;28;8860;-79
2023/05/16 01:07:55;;;;;;;;;22.60;22.60;;;;;15.86;59.48;98530.63;5044546;28;9625;-78
2023/05/16 01:10:24;;;;;;;;;28.20;25.40;;;;;15.94;59.02;98536.31;4979942;28;8867;-78
2023/05/16 01:13:09;;;;;;;;;21.80;18.60;;;;;16.03;59.08;98544.56;5026820;28;9001;-79
2023/05/16 01:15:47;;;;;;;;;24.60;24.60;;;;;16.08;58.96;98544.31;5031328;28;8864;-78
2023/05/16 01:18:23;;;;;;;;;25.80;25.20;;;;;16.12;58.82;98548.50;5023190;28;8867;-80
2023/05/16 01:20:59;;;;;;;;;25.40;24.00;;;;;16.06;59.11;98534.72;5028148;28;8863;-78
2023/05/16 01:23:45;;;;;;;;;19.80;19.80;;;;;15.97;59.58;98536.16;5029899;28;8861;-79
2023/05/16 01:26:20;;;;;;;;;26.40;26.40;;;;;16.09;59.41;98518.66;5053605;28;8847;-78
2023/05/16 01:28:50;;;;;;;;;28.40;26.00;;;;;15.79;60.55;98504.50;5066079;28;8862;-79
2023/05/16 01:31:20;;;;;;;;;24.80;23.40;;;;;15.66;61.30;98481.47;5031129;28;8864;-79
2023/05/16 01:33:49;;;;;;;;;21.60;20.60;;;;;15.41;62.19;98467.81;5024709;28;8982;-79
2023/05/16 01:36:25;;;;;;;;;21.20;21.20;;;;;15.45;61.95;98468.50;4979657;28;8849;-79
2023/05/16 01:39:02;;;;;;;;;23.60;23.00;;;;;15.23;62.81;98464.44;4995593;28;8869;-79
2023/05/16 01:41:43;;;;;;;;;21.80;21.80;;;;;15.32;62.70;98470.16;5020759;28;8860;-79
2023/05/16 01:44:19;;;;;;;;;24.60;23.80;;;;;15.31;62.65;98471.09;5011548;28;8861;-78
2023/05/16 01:46:49;;;;;;;;;22.60;22.40;;;;;15.23;63.05;98469.75;5026801;28;8945;-79
2023/05/16 01:49:25;;;;;;;;;26.80;23.00;;;;;15.43;62.46;98468.59;5049300;28;9602;-79
2023/05/16 01:52:00;;;;;;;;;21.60;21.00;;;;;15.51;62.02;98477.88;5045791;28;8860;-79
2023/05/16 01:54:32;;;;;;;;;25.20;23.00;;;;;15.51;62.09;98478.75;5046069;28;9034;-77
2023/05/16 01:57:04;;;;;;;;;22.80;22.60;;;;;15.33;63.01;98493.06;5045806;28;8877;-80
2023/05/16 01:59:35;;;;;;;;;25.20;23.40;;;;;15.61;62.03;98489.69;5012220;28;8876;-78
2023/05/16 02:02:04;;;;;;;;;24.80;24.80;;;;;15.75;61.31;98486.22;4980149;28;8868;-81
2023/05/16 02:04:33;;;;;;;;;23.40;22.00;;;;;15.86;60.89;98489.06;5050059;28;9700;-78
2023/05/16 02:07:02;;;;;;;;;26.80;26.00;;;;;15.93;60.63;98494.88;5045871;28;8834;-79
2023/05/16 02:09:31;;;;;;;;;25.40;22.80;;;;;15.84;60.98;98477.72;4995176;28;8861;-78
2023/05/16 02:12:01;;;;;;;;;23.40;23.40;;;;;15.82;61.07;98474.31;5047492;28;8857;-79
2023/05/16 02:14:31;;;;;;;;;25.60;25.20;;;;;15.78;61.34;98481.59;5049480;28;8872;-79
2023/05/16 02:17:00;;;;;;;;;22.60;22.40;;;;;15.73;61.56;98490.75;5048857;28;8950;-80
2023/05/16 02:19:29;;;;;;;;;25.60;24.60;;;;;15.83;61.29;98486.59;5048877;28;8861;-79
2023/05/16 02:21:58;;;;;;;;;23.20;22.60;;;;;15.73;61.84;98490.75;5060956;28;9647;-79
2023/05/16 02:24:27;;;;;;;;;22.80;22.80;;;;;15.77;61.40;98482.53;5018450;28;8933;-78
2023/05/16 02:26:56;;;;;;;;;26.20;24.40;;;;;15.72;61.66;98479.31;5068882;28;8851;-80
2023/05/16 02:29:25;;;;;;;;;24.40;23.80;;;;;15.79;61.40;98491.25;5070452;28;8997;-78
2023/05/16 02:31:55;;;;;;;;;21.80;21.40;;;;;15.70;61.94;98489.16;5052220;28;9600;-79
2023/05/16 02:34:24;;;;;;;;;22.60;22.60;;;;;15.68;61.68;98506.06;5068956;28;8882;-78
2023/05/16 02:36:53;;;;;;;;;23.60;23.20;;;;;15.59;62.36;98518.03;5052286;28;8838;-77
2023/05/16 02:39:22;;;;;;;;;22.20;21.00;;;;;15.70;61.98;98515.66;5048246;28;8893;-76
2023/05/16 02:41:52;;;;;;;;;25.00;23.80;;;;;15.75;61.85;98510.06;5047009;28;8846;-78
2023/05/16 02:44:21;;;;;;;;;24.60;22.20;;;;;15.72;62.04;98504.94;5047579;28;9093;-78
2023/05/16 02:46:50;;;;;;;;;28.20;25.80;;;;;15.54;62.52;98502.38;5047294;28;8993;-79
2023/05/16 02:49:20;;;;;;;;;25.00;24.80;;;;;15.67;62.28;98494.63;5021346;28;8992;-79
2023/05/16 02:51:49;;;;;;;;;23.60;23.60;;;;;15.59;62.47;98487.09;5047207;28;8838;-79
2023/05/16 02:54:20;;;;;;;;;20.60;19.80;;;;;15.43;63.08;98471.25;5049240;28;8852;-78
2023/05/16 02:56:49;;;;;;;;;23.80;23.80;;;;;15.35;63.12;98464.69;5050938;28;8828;-77
2023/05/16 02:59:20;;;;;;;;;24.00;22.80;;;;;15.25;63.62;98451.13;5067423;28;8949;-78
2023/05/16 03:01:50;;;;;;;;;26.60;25.80;;;;;15.13;64.01;98454.47;5055168;28;9001;-79
2023/05/16 03:04:20;;;;;;;;;25.80;23.00;;;;;14.99;64.92;98449.97;5027443;28;8896;-80
2023/05/16 03:06:50;;;;;;;;;25.00;25.00;;;;;14.71;66.19;98445.34;5047421;28;8833;-78
2023/05/16 03:09:19;;;;;;;;;24.60;24.60;;;;;14.64;66.61;98443.03;5030421;28;8849;-78
2023/05/16 03:11:48;;;;;;;;;28.20;27.80;;;;;14.56;67.29;98424.09;5030289;28;8857;-80
2023/05/16 03:14:20;;;;;;;;;25.00;24.20;;;;;14.46;68.20;98423.75;5047523;28;8841;-79
2023/05/16 03:16:49;;;;;;;;;20.20;20.20;;;;;14.40;68.34;98402.94;5047429;28;8845;-78
2023/05/16 03:19:21;;;;;;;;;26.60;25.20;;;;;14.22;69.20;98403.94;5065046;28;8853;-79
2023/05/16 03:21:50;;;;;;;;;26.80;24.40;;;;;14.15;69.55;98408.72;5047759;28;8860;-77
2023/05/16 03:24:20;;;;;;;;;27.60;27.60;;;;;14.17;69.57;98429.75;4997101;28;8891;-78
2023/05/16 03:26:49;;;;;;;;;27.60;25.60;;;;;14.13;69.84;98425.56;5049046;28;8938;-79
2023/05/16 03:29:21;;;;;;;;;28.80;27.40;;;;;14.09;70.01;98438.09;5052991;28;8898;-78
2023/05/16 03:31:50;;;;;;;;;24.00;24.00;;;;;14.01;70.57;98417.38;5068231;28;8979;-79
2023/05/16 03:34:21;;;;;;;;;28.80;27.40;;;;;14.02;70.52;98418.25;5085005;28;8973;-79
2023/05/16 03:36:50;;;;;;;;;25.60;24.80;;;;;13.99;70.74;98402.53;5051560;28;8853;-79
2023/05/16 03:39:19;;;;;;;;;21.00;20.00;;;;;13.86;71.06;98394.41;5079161;28;8868;-79
2023/05/16 03:41:48;;;;;;;;;23.80;22.00;;;;;13.88;71.19;98379.31;5049069;28;8968;-77
2023/05/16 03:44:16;;;;;;;;;28.00;27.80;;;;;13.87;70.89;98382.91;5048467;28;8908;-81
2023/05/16 03:46:45;;;;;;;;;24.00;24.00;;;;;13.77;71.32;98379.00;5049166;28;8846;-79
2023/05/16 03:49:14;;;;;;;;;25.00;24.20;;;;;13.79;71.14;98387.69;5065766;28;8871;-77
2023/05/16 03:51:44;;;;;;;;;27.60;26.00;;;;;13.77;71.16;98377.25;5048979;28;8868;-79
2023/05/16 03:54:13;;;;;;;;;24.00;22.80;;;;;13.93;70.21;98377.31;5065949;28;8855;-77
2023/05/16 03:56:42;;;;;;;;;16.20;16.20;;;;;13.88;69.90;98372.28;5077625;28;9984;-80
2023/05/16 03:59:11;;;;;;;;;24.00;21.40;;;;;13.93;69.58;98373.81;5051643;28;8849;-79
2023/05/16 04:01:40;;;;;;;;;22.60;21.60;;;;;13.99;69.56;98369.03;5069126;28;9055;-78
2023/05/16 04:04:08;;;;;;;;;22.40;20.60;;;;;13.90;69.76;98356.31;5060974;28;8898;-78
2023/05/16 04:06:37;;;;;;;;;31.20;30.80;;;;;13.93;69.78;98360.59;5048950;28;8840;-79
2023/05/16 04:09:08;;;;;;;;;25.80;22.80;;;;;14.06;69.13;98340.50;5049240;28;8856;-79
2023/05/16 04:11:37;;;;;;;;;23.40;22.20;;;;;13.89;69.40;98362.56;5047212;28;8868;-79
2023/05/16 04:14:06;;;;;;;;;21.80;21.60;;;;;13.79;69.49;98356.88;4997894;28;8875;-79
2023/05/16 04:16:35;;;;;;;;;21.80;21.80;;;;;13.90;69.24;98364.25;5045814;28;8910;-78
2023/05/16 04:19:04;;;;;;;;;24.20;24.20;;;;;13.70;69.56;98360.84;5013331;28;8845;-80
2023/05/16 04:21:34;;;;;;;;;26.00;24.60;;;;;13.64;70.13;98368.25;5030779;28;8857;-77
2023/05/16 04:24:03;;;;;;;;;26.80;24.40;;;;;13.61;69.97;98406.22;5048231;28;9665;-77
2023/05/16 04:26:33;;;;;;;;;23.80;23.60;;;;;13.83;69.25;98406.00;5047842;28;8869;-81
2023/05/16 04:29:02;;;;;;;;;27.60;27.40;;;;;13.77;69.23;98394.84;5046263;28;8885;-80
2023/05/16 04:31:31;;;;;;;;;26.80;24.00;;;;;13.88;68.34;98385.47;5053787;28;8895;-79
2023/05/16 04:34:00;;;;;;;;;27.40;27.40;;;;;13.93;68.23;98390.50;5046237;28;8995;-81
2023/05/16 04:36:30;;;;;;;;;25.60;24.00;;;;;13.96;68.16;98384.19;5046457;28;8841;-78
2023/05/16 04:38:59;;;;;;;;;23.80;22.40;;;;;13.72;68.71;98376.63;5048186;28;8895;-77
2023/05/16 04:41:28;;;;;;;;;26.40;24.00;;;;;13.73;68.42;98388.88;5013089;28;8990;-80
2023/05/16 04:43:58;;;;;;;;;22.40;21.60;;;;;13.73;68.48;98382.75;5050493;28;8860;-78
2023/05/16 04:46:27;;;;;;;;;20.40;20.40;;;;;13.81;68.16;98385.84;5049103;28;8916;-79
2023/05/16 04:48:56;;;;;;;;;22.20;22.20;;;;;13.75;68.25;98380.88;5072943;28;8873;-78
2023/05/16 04:51:25;;;;;;;;;29.80;26.40;;;;;13.68;68.38;98375.94;5018532;28;8853;-80
2023/05/16 04:53:54;;;;;;;;;20.20;20.00;;;;;13.73;68.22;98378.31;5047672;28;8861;-79
2023/05/16 04:56:23;;;;;;;;;25.80;23.60;;;;;13.83;67.75;98382.22;5029429;28;8876;-79
2023/05/16 04:58:53;;;;;;;;;27.60;24.40;;;;;13.80;67.37;98377.09;5067193;28;8943;-80
2023/05/16 05:01:23;;;;;;;;;21.80;21.80;;;;;13.64;67.34;98379.66;5065838;28;8846;-79
2023/05/16 05:03:52;;;;;;;;;22.60;22.20;;;;;13.48;67.88;98389.31;5066566;28;9008;-79
2023/05/16 05:06:21;;;;;;;;;20.20;19.80;;;;;13.65;67.42;98406.91;5042094;28;8825;-79
2023/05/16 05:08:50;;;;;;;;;20.00;20.00;;;;;13.69;67.54;98411.97;5054385;28;9122;-78
2023/05/16 05:11:19;;;;;;;;;24.80;23.80;;;;;13.79;67.16;98417.63;5017779;28;8859;-76
2023/05/16 05:13:47;;;;;;;;;22.20;21.00;;;;;13.79;66.41;98412.34;5049572;28;8871;-77
2023/05/16 05:16:19;;;;;;;;;21.00;19.80;;;;;13.83;66.63;98408.63;5044673;28;8872;-78
2023/05/16 05:18:49;;;;;;;;;22.80;21.80;;;;;13.84;66.29;98417.41;5062204;28;8870;-78
2023/05/16 05:21:19;;;;;;;;;20.80;19.20;;;;;13.88;66.09;98417.19;5064762;28;8854;-80
2023/05/16 05:23:48;;;;;;;;;21.20;20.00;;;;;13.95;65.83;98438.00;5034686;28;8869;-78
2023/05/16 05:26:18;;;;;;;;;22.40;21.00;;;;;14.17;65.04;98443.84;5043303;28;8958;-78
2023/05/16 05:28:47;;;;;;;;;24.20;22.80;;;;;14.20;64.92;98450.75;4987109;28;8840;-77
2023/05/16 05:31:32;;;;;;;;;22.20;21.60;;;;;14.43;63.97;98447.72;4992483;28;8887;-78
2023/05/16 05:34:02;;;;;;;;;20.40;18.80;;;;;14.53;63.75;98456.00;4991440;28;8885;-78
2023/05/16 05:36:32;;;;;;;;;19.80;18.20;;;;;14.64;63.19;98448.34;5004753;28;8856;-79
2023/05/16 05:39:00;;;;;;;;;24.00;23.00;;;;;14.55;63.52;98427.69;5007802;28;9059;-79
2023/05/16 05:41:30;;;;;;;;;26.40;20.40;;;;;14.63;62.96;98399.00;4989904;28;8892;-78
2023/05/16 05:43:58;;;;;;;;;21.80;21.80;;;;;14.53;63.55;98413.69;5009002;28;8858;-78
2023/05/16 05:46:27;;;;;;;;;17.20;15.60;;;;;14.54;63.77;98435.69;5026973;28;8872;-76
2023/05/16 05:48:57;;;;;;;;;22.80;21.00;;;;;14.43;63.71;98417.78;5029822;28;8980;-78
2023/05/16 05:51:27;;;;;;;;;24.20;23.20;;;;;14.39;63.84;98418.88;4982643;28;8844;-77
2023/05/16 05:53:56;;;;;;;;;19.60;19.60;;;;;14.38;63.96;98431.25;5005081;28;9616;-76
2023/05/16 05:56:25;;;;;;;;;19.40;19.40;;;;;14.29;63.78;98422.03;5011651;28;8971;-76
2023/05/16 05:58:54;;;;;;;;;20.20;20.20;;;;;14.42;63.14;98430.16;5013427;28;8891;-78
2023/05/16 06:01:23;;;;;;;;;20.20;19.80;;;;;14.29;63.37;98423.81;5052052;28;8913;-78
2023/05/16 06:03:51;;;;;;;;;21.60;20.00;;;;;14.39;63.41;98432.09;5069225;28;9791;-77
2023/05/16 06:06:20;;;;;;;;;21.00;21.00;;;;;14.41;62.84;98430.22;5070303;28;8849;-78
2023/05/16 06:08:50;;;;;;;;;21.20;19.60;;;;;14.42;62.55;98430.16;5068986;28;8896;-78
2023/05/16 06:11:20;;;;;;;;;20.40;20.00;;;;;14.42;62.83;98426.66;5070134;28;8920;-77
2023/05/16 06:13:49;;;;;;;;;22.00;21.40;;;;;14.43;62.44;98426.56;5068553;28;8947;-79
2023/05/16 06:16:18;;;;;;;;;19.80;18.60;;;;;14.36;62.36;98424.34;5069249;28;8947;-81
2023/05/16 06:18:47;;;;;;;;;21.40;19.40;;;;;14.53;61.89;98411.06;5069456;28;8855;-80
2023/05/16 06:21:16;;;;;;;;;18.80;18.80;;;;;14.49;61.79;98404.22;5048878;28;8918;-81
2023/05/16 06:23:45;;;;;;;;;16.80;16.00;;;;;14.34;61.25;98398.00;5051970;28;8908;-81
2023/05/16 06:26:16;;;;;;;;;19.00;17.40;;;;;14.34;61.03;98373.31;5068973;28;8913;-80
2023/05/16 06:28:44;;;;;;;;;20.40;18.80;;;;;14.36;60.53;98377.63;5071838;28;8839;-79
2023/05/16 06:31:13;;;;;;;;;18.20;17.00;;;;;14.43;60.62;98378.97;5060106;28;8881;-81
2023/05/16 06:33:42;;;;;;;;;18.40;17.80;;;;;14.29;60.48;98389.47;5058179;28;8955;-81
2023/05/16 06:36:11;;;;;;;;;16.60;16.60;;;;;14.38;60.60;98394.25;5044603;28;8876;-80
2023/05/16 06:38:40;;;;;;;;;20.00;18.80;;;;;14.41;60.00;98409.06;5057721;28;8866;-81
2023/05/16 06:41:09;;;;;;;;;20.20;20.20;;;;;14.54;59.51;98406.59;5058566;28;8869;-80
2023/05/16 06:43:40;;;;;;;;;18.60;16.00;;;;;14.62;58.22;98392.03;5048122;28;8959;-81
2023/05/16 06:46:09;;;;;;;;;20.60;19.40;;;;;14.52;58.21;98388.19;5069670;28;10115;-80
2023/05/16 06:48:38;;;;;;;;;18.60;18.40;;;;;14.50;58.07;98399.78;5068652;28;8881;-79
2023/05/16 06:51:07;;;;;;;;;15.40;15.40;;;;;14.65;57.80;98401.56;5026356;28;8829;-79
2023/05/16 06:53:36;;;;;;;;;18.00;18.00;;;;;14.53;57.86;98404.88;5050429;28;8892;-80
2023/05/16 06:56:05;;;;;;;;;15.80;15.80;;;;;14.72;57.04;98421.50;5015326;28;8849;-79
2023/05/16 06:58:34;;;;;;;;;17.00;17.00;;;;;14.88;56.21;98402.94;5031940;28;8857;-80
2023/05/16 07:01:05;;;;;;;;;15.60;15.00;;;;;14.85;56.20;98398.69;5049909;28;8861;-80
2023/05/16 07:03:34;;;;;;;;;15.40;15.20;;;;;14.84;56.41;98419.94;5068746;28;8908;-78
2023/05/16 07:06:03;;;;;;;;;17.40;16.40;;;;;14.56;57.41;98412.66;5051223;28;8862;-79
2023/05/16 07:08:34;;;;;;;;;19.20;19.20;;;;;14.82;56.65;98417.38;5068494;28;8893;-80
2023/05/16 07:11:03;;;;;;;;;18.40;17.60;;;;;15.00;56.13;98415.50;5051787;28;8846;-80
2023/05/16 07:13:32;;;;;;;;;15.40;14.20;;;;;14.96;56.33;98413.09;5067432;28;8872;-80
2023/05/16 07:16:06;;;;;;;;;17.80;17.80;;;;;14.93;55.81;98405.34;5033999;28;8855;-78
2023/05/16 07:18:35;;;;;;;;;17.00;16.00;;;;;14.93;55.31;98413.28;5067183;28;8921;-80
2023/05/16 07:21:04;;;;;;;;;19.40;18.00;;;;;15.01;55.41;98422.47;5067085;28;8847;-79
2023/05/16 07:23:33;;;;;;;;;17.20;16.40;;;;;15.09;55.08;98429.13;5017065;28;9598;-79
2023/05/16 07:26:03;;;;;;;;;16.80;15.00;;;;;15.15;54.52;98432.28;5067292;28;8860;-80
2023/05/16 07:28:31;;;;;;;;;16.80;16.40;;;;;15.04;54.84;98432.06;5050612;28;8951;-80
2023/05/16 07:31:00;;;;;;;;;15.20;15.20;;;;;15.22;54.19;98448.66;5010703;28;8845;-81
2023/05/16 07:33:32;;;;;;;;;16.20;15.60;;;;;15.36;54.03;98437.25;5010816;28;8881;-79
2023/05/16 07:36:01;;;;;;;;;18.40;17.00;;;;;15.37;54.14;98446.91;5010629;28;8865;-83
2023/05/16 07:38:45;;;;;;;;;21.80;18.80;;;;;15.38;54.29;98440.69;5010310;28;8951;-80
2023/05/16 07:41:14;;;;;;;;;18.20;17.20;;;;;15.39;54.35;98427.34;5010944;28;8830;-81
2023/05/16 07:43:43;;;;;;;;;18.00;16.20;;;;;15.48;54.18;98415.34;5008669;28;8857;-79
2023/05/16 07:46:13;;;;;;;;;17.00;16.00;;;;;15.42;53.82;98413.06;4990623;28;8885;-79
2023/05/16 07:48:43;;;;;;;;;17.40;15.80;;;;;15.38;54.06;98391.22;4992812;28;9679;-81
2023/05/16 07:51:12;;;;;;;;;15.60;15.60;;;;;15.50;54.16;98408.16;4942821;28;8862;-81
2023/05/16 07:53:41;;;;;;;;;18.80;18.20;;;;;15.46;54.46;98401.34;5006769;28;8902;-79
2023/05/16 07:56:11;;;;;;;;;18.20;18.00;;;;;15.32;54.52;98407.47;5006707;28;8904;-80
2023/05/16 07:58:41;;;;;;;;;15.60;14.20;;;;;15.32;55.13;98409.25;4986951;28;9007;-79
2023/05/16 08:01:10;;;;;;;;;17.80;16.80;;;;;15.35;55.39;98404.63;4989781;28;8977;-81
2023/05/16 08:03:39;;;;;;;;;20.80;17.80;;;;;15.43;55.09;98402.41;5006499;28;8878;-80
2023/05/16 08:06:10;;;;;;;;;18.00;17.20;;;;;15.40;55.23;98414.97;5006596;28;8881;-79
2023/05/16 08:08:39;;;;;;;;;19.00;19.00;;;;;15.42;55.54;98426.31;4970451;28;8956;-80
2023/05/16 08:11:08;;;;;;;;;20.40;18.60;;;;;15.38;55.31;98432.75;5067379;28;8862;-80
2023/05/16 08:13:37;;;;;;;;;19.80;18.40;;;;;15.41;55.54;98437.84;5068279;28;8856;-80
2023/05/16 08:16:06;;;;;;;;;16.80;16.80;;;;;15.56;55.56;98447.53;5054355;28;8886;-79
2023/05/16 08:18:35;;;;;;;;;19.40;18.20;;;;;15.84;54.46;98451.22;5069023;28;8880;-79
2023/05/16 08:21:05;;;;;;;;;19.00;18.40;;;;;15.84;54.46;98454.72;5063427;28;8876;-80
2023/05/16 08:23:35;;;;;;;;;20.20;18.80;;;;;15.77;54.70;98456.03;5023694;28;8940;-79
2023/05/16 08:26:04;;;;;;;;;19.40;16.60;;;;;15.99;54.58;98465.34;5050231;28;8867;-81
2023/05/16 08:28:33;;;;;;;;;22.80;20.60;;;;;15.79;55.08;98466.53;5033281;28;8872;-79
2023/05/16 08:31:02;;;;;;;;;19.00;18.60;;;;;15.73;55.43;98472.22;5049955;28;8836;-79
2023/05/16 08:33:31;;;;;;;;;21.20;19.20;;;;;15.82;55.19;98479.59;5066597;28;9030;-79
2023/05/16 08:36:00;;;;;;;;;19.80;19.00;;;;;15.93;55.23;98474.53;5070809;28;8846;-79
2023/05/16 08:38:29;;;;;;;;;19.20;18.20;;;;;16.14;55.08;98450.31;5069105;28;8862;-81
2023/05/16 08:40:59;;;;;;;;;20.60;20.40;;;;;16.19;55.06;98450.84;5051218;28;8976;-80
2023/05/16 08:43:29;;;;;;;;;20.80;20.00;;;;;16.27;55.44;98448.59;5050781;28;9004;-79
2023/05/16 08:45:59;;;;;;;;;21.20;20.00;;;;;16.53;54.50;98448.78;5050967;28;8846;-79
2023/05/16 08:48:28;;;;;;;;;21.40;20.60;;;;;16.60;54.38;98450.09;5067475;28;8912;-80
2023/05/16 08:50:57;;;;;;;;;18.00;18.00;;;;;16.61;54.21;98441.22;5033750;28;8826;-81
2023/05/16 08:53:32;;;;;;;;;17.00;16.60;;;;;16.93;53.58;98443.59;5067545;28;8920;-79
2023/05/16 08:56:04;;;;;;;;;15.20;15.20;;;;;16.96;53.09;98446.88;5068813;28;8915;-79
2023/05/16 08:58:33;;;;;;;;;22.60;18.80;;;;;16.96;52.96;98435.41;5017213;28;8870;-81
2023/05/16 09:01:05;;;;;;;;;22.20;21.00;;;;;16.93;53.13;98443.59;5067452;28;8846;-81
2023/05/16 09:03:36;;;;;;;;;19.20;18.80;;;;;16.93;52.75;98446.25;5067036;28;8870;-80
2023/05/16 09:06:06;;;;;;;;;17.00;16.60;;;;;17.02;52.77;98461.56;5067493;28;9604;-78
2023/05/16 09:08:36;;;;;;;;;18.40;17.80;;;;;17.17;52.33;98476.53;5000790;28;8850;-79
2023/05/16 09:11:07;;;;;;;;;20.60;20.60;;;;;17.19;52.52;98474.63;5068099;28;8977;-81
2023/05/16 09:13:35;;;;;;;;;22.00;20.20;;;;;17.31;52.39;98475.63;5049977;28;8963;-80
2023/05/16 09:16:09;;;;;;;;;20.80;19.40;;;;;17.18;53.15;98480.03;5064924;28;9030;-79
2023/05/16 09:18:39;;;;;;;;;23.00;22.00;;;;;17.37;53.00;98474.38;5047587;28;8866;-79
2023/05/16 09:21:10;;;;;;;;;21.80;21.80;;;;;17.43;53.24;98455.38;5029272;28;8865;-79
2023/05/16 09:23:39;;;;;;;;;21.60;20.20;;;;;17.53;53.35;98456.47;5048672;28;9612;-78
2023/05/16 09:26:10;;;;;;;;;20.00;20.00;;;;;17.62;53.75;98441.69;5032708;28;8866;-79
2023/05/16 09:28:39;;;;;;;;;23.40;22.00;;;;;17.56;53.75;98436.81;5032592;28;8954;-80
2023/05/16 09:31:21;;;;;;;;;20.40;20.40;;;;;17.89;53.33;98443.41;5032120;28;8885;-79
2023/05/16 09:33:50;;;;;;;;;23.40;22.40;;;;;17.33;54.76;98435.69;4998504;28;8992;-80
2023/05/16 09:36:19;;;;;;;;;21.20;20.60;;;;;17.30;55.30;98425.25;4973742;28;8869;-78
2023/05/16 09:38:49;;;;;;;;;23.80;22.60;;;;;17.25;54.79;98446.84;4957276;28;8882;-83
2023/05/16 09:41:22;;;;;;;;;20.20;19.80;;;;;17.29;55.05;98437.69;4976627;28;8976;-78
2023/05/16 09:43:50;;;;;;;;;22.20;20.20;;;;;17.36;54.70;98428.38;4992869;28;8879;-78
2023/05/16 09:46:25;;;;;;;;;20.40;20.40;;;;;17.08;55.12;98431.97;4994355;28;8988;-80
2023/05/16 09:48:55;;;;;;;;;20.20;20.20;;;;;16.97;55.48;98434.47;5011876;28;8949;-79
2023/05/16 09:51:24;;;;;;;;;20.80;17.40;;;;;17.13;55.16;98439.63;5011996;28;9006;-79
2023/05/16 09:53:53;;;;;;;;;23.20;20.60;;;;;16.89;55.22;98447.38;5028478;28;9707;-80
2023/05/16 09:56:23;;;;;;;;;22.80;21.20;;;;;16.76;55.35;98455.31;5012491;28;8886;-78
2023/05/16 09:58:52;;;;;;;;;22.80;22.80;;;;;16.73;55.08;98453.69;5031335;28;8851;-79
2023/05/16 10:01:23;;;;;;;;;20.00;18.40;;;;;16.90;55.13;98451.75;5032433;28;8860;-79
2023/05/16 10:03:52;;;;;;;;;22.40;20.40;;;;;16.98;55.24;98471.56;5030476;28;8856;-80
2023/05/16 10:06:22;;;;;;;;;17.20;16.40;;;;;16.87;55.76;98466.09;5046413;28;8854;-79
2023/05/16 10:08:51;;;;;;;;;20.20;20.20;;;;;17.09;54.99;98462.03;5033532;28;8846;-82
2023/05/16 10:11:20;;;;;;;;;22.20;21.40;;;;;16.99;54.78;98448.50;5048574;28;8842;-79
2023/05/16 10:13:52;;;;;;;;;24.40;23.60;;;;;16.79;55.74;98450.63;5049706;28;8871;-80
2023/05/16 10:16:23;;;;;;;;;24.20;24.20;;;;;16.80;55.42;98459.47;5052107;28;8855;-80
2023/05/16 10:18:52;;;;;;;;;20.60;20.60;;;;;16.91;55.38;98454.31;5067828;28;8879;-81
2023/05/16 10:21:23;;;;;;;;;21.00;20.80;;;;;16.91;55.00;98442.81;5051540;28;8856;-79
2023/05/16 10:23:54;;;;;;;;;21.60;19.60;;;;;16.88;55.44;98433.28;5034308;28;8949;-80
2023/05/16 10:26:24;;;;;;;;;22.00;20.40;;;;;16.99;55.12;98440.53;5067974;28;8892;-80
2023/05/16 10:28:55;;;;;;;;;24.60;23.60;;;;;16.92;55.15;98428.63;5034426;28;8875;-79
2023/05/16 10:31:25;;;;;;;;;19.80;18.20;;;;;17.12;54.65;98428.16;5034182;28;8844;-81
2023/05/16 10:33:54;;;;;;;;;25.40;25.40;;;;;17.26;54.45;98421.97;5038558;28;8860;-79
2023/05/16 10:36:24;;;;;;;;;18.60;18.60;;;;;17.47;53.69;98405.53;5053823;28;8863;-79
2023/05/16 10:38:54;;;;;;;;;26.00;25.00;;;;;17.44;53.66;98403.06;5070601;28;8874;-79
2023/05/16 10:41:24;;;;;;;;;23.20;22.00;;;;;17.67;52.65;98412.16;5068463;28;8970;-81
2023/05/16 10:43:58;;;;;;;;;22.60;21.00;;;;;17.61;51.38;98404.59;5070751;28;8870;-80
2023/05/16 10:46:28;;;;;;;;;16.60;16.40;;;;;17.57;52.41;98409.25;5068968;28;8962;-79
2023/05/16 10:48:57;;;;;;;;;18.00;17.00;;;;;17.86;51.45;98407.28;5034668;28;8870;-80
2023/05/16 10:51:35;;;;;;;;;19.40;19.00;;;;;18.09;50.46;98403.03;5069340;28;8871;-80
2023/05/16 10:54:11;;;;;;;;;22.20;20.60;;;;;18.08;50.25;98400.47;5068887;28;8874;-80
2023/05/16 10:56:42;;;;;;;;;22.20;19.80;;;;;18.06;49.79;98403.28;5068694;28;8842;-80
2023/05/16 10:59:25;;;;;;;;;19.00;18.00;;;;;18.26;49.03;98393.03;5051542;28;8874;-80
2023/05/16 11:01:57;;;;;;;;;21.00;20.00;;;;;18.30;49.22;98395.34;5069917;28;8846;-80
2023/05/16 11:04:45;;;;;;;;;19.20;19.20;;;;;18.46;48.36;98391.56;5069614;28;8869;-78
2023/05/16 11:07:16;;;;;;;;;19.20;18.80;;;;;18.59;47.63;98395.06;5034902;28;9592;-79
2023/05/16 11:09:45;;;;;;;;;19.00;19.00;;;;;18.64;47.49;98392.91;5051493;28;8880;-80
2023/05/16 11:12:14;;;;;;;;;20.00;19.60;;;;;18.68;47.43;98388.22;5035009;28;8858;-81
2023/05/16 11:14:51;;;;;;;;;17.00;16.00;;;;;18.88;47.75;98387.63;5069766;28;9818;-79
2023/05/16 11:17:22;;;;;;;;;19.20;18.40;;;;;18.93;47.24;98381.94;5068571;28;8841;-81
2023/05/16 11:19:52;;;;;;;;;18.00;17.00;;;;;19.21;47.18;98380.75;5069848;28;8851;-79
2023/05/16 11:22:26;;;;;;;;;18.80;18.40;;;;;19.40;47.60;98376.69;5051729;28;8871;-80
2023/05/16 11:24:57;;;;;;;;;10.80;10.60;;;;;19.65;46.55;98371.22;5068498;28;8843;-80
2023/05/16 11:27:48;;;;;;;;;19.80;19.40;;;;;19.75;45.75;98382.00;5087001;28;8992;-80
2023/05/16 11:30:20;;;;;;;;;17.40;16.80;;;;;19.87;46.28;98365.03;5020555;28;8834;-80
2023/05/16 11:32:50;;;;;;;;;19.80;18.40;;;;;19.83;45.39;98355.59;5087194;28;8849;-81
2023/05/16 11:35:18;;;;;;;;;20.00;18.80;;;;;19.95;44.47;98364.44;5070180;28;9631;-81
2023/05/16 11:37:49;;;;;;;;;19.20;18.60;;;;;19.92;45.12;98355.84;5086724;28;8861;-80